Time;durP1;ratioP1;P1;durP2;ratioP2;P2;SDS_P1;SDS_P2;PMS_P1;PMS_P2;Temp;Humidity;BMP_temperature;BMP_pressure;BME280_temperature;BME280_humidity;BME280_pressure;Samples;Min_cycle;Max_cycle;Signal;HPM_P1;HPM_P2
2022/07/23 00:02:20;;;;;;;6.65;3.75;;;;;;;;;;4986503;28;20227;-69
2022/07/23 00:04:45;;;;;;;5.32;3.78;;;;;;;;;;4985751;28;20097;-69
2022/07/23 00:07:11;;;;;;;5.68;4.20;;;;;;;;;;4983326;28;20042;-70
2022/07/23 00:09:36;;;;;;;7.03;4.07;;;;;;;;;;4985767;28;20041;-70
2022/07/23 00:12:01;;;;;;;4.75;4.15;;;;;;;;;;4985915;28;20027;-70
2022/07/23 00:14:27;;;;;;;4.47;4.00;;;;;;;;;;4984645;28;20054;-70
2022/07/23 00:16:52;;;;;;;6.03;3.95;;;;;;;;;;4984144;28;20050;-70
2022/07/23 00:19:18;;;;;;;5.68;3.70;;;;;;;;;;4983982;28;20480;-69
2022/07/23 00:21:43;;;;;;;7.13;3.92;;;;;;;;;;4986433;28;20026;-73
2022/07/23 00:24:09;;;;;;;4.60;3.67;;;;;;;;;;4980185;28;20036;-68
2022/07/23 00:26:34;;;;;;;6.78;4.10;;;;;;;;;;4984345;28;20419;-69
2022/07/23 00:28:59;;;;;;;4.93;4.03;;;;;;;;;;4984692;28;20049;-69
2022/07/23 00:31:25;;;;;;;5.45;4.07;;;;;;;;;;4984875;28;20113;-70
2022/07/23 00:33:50;;;;;;;6.80;3.97;;;;;;;;;;4979762;28;20133;-70
2022/07/23 00:36:16;;;;;;;7.70;3.97;;;;;;;;;;4981874;28;20041;-71
2022/07/23 00:38:42;;;;;;;5.80;4.10;;;;;;;;;;4978939;28;20129;-70
2022/07/23 00:41:07;;;;;;;6.68;4.65;;;;;;;;;;4986079;28;20101;-70
2022/07/23 00:43:33;;;;;;;5.32;3.97;;;;;;;;;;4979217;28;20649;-70
2022/07/23 00:45:58;;;;;;;5.38;4.15;;;;;;;;;;4982884;28;20049;-70
2022/07/23 00:48:23;;;;;;;4.97;3.95;;;;;;;;;;4983949;28;20038;-70
2022/07/23 00:50:49;;;;;;;7.50;4.22;;;;;;;;;;4986523;28;20089;-71
2022/07/23 00:53:15;;;;;;;4.63;3.97;;;;;;;;;;4985109;28;20137;-71
2022/07/23 00:55:41;;;;;;;7.05;4.15;;;;;;;;;;4980158;28;20049;-71
2022/07/23 00:58:07;;;;;;;7.35;4.28;;;;;;;;;;4980675;28;20054;-71
2022/07/23 01:00:32;;;;;;;8.23;4.05;;;;;;;;;;4980728;28;20034;-70
2022/07/23 01:02:58;;;;;;;5.70;4.32;;;;;;;;;;4987335;28;20388;-72
2022/07/23 01:05:23;;;;;;;8.00;3.97;;;;;;;;;;4982322;28;20047;-70
2022/07/23 01:07:50;;;;;;;6.50;4.20;;;;;;;;;;4981711;28;20054;-71
2022/07/23 01:10:30;;;;;;;6.28;3.90;;;;;;;;;;4986575;28;20093;-71
2022/07/23 01:12:56;;;;;;;5.63;3.97;;;;;;;;;;4987562;28;20046;-71
2022/07/23 01:15:22;;;;;;;7.35;3.95;;;;;;;;;;4989993;28;20479;-71
2022/07/23 01:17:47;;;;;;;6.03;3.90;;;;;;;;;;4986266;28;20089;-71
2022/07/23 01:20:14;;;;;;;6.55;4.60;;;;;;;;;;4985961;28;20054;-70
2022/07/23 01:22:40;;;;;;;7.70;4.57;;;;;;;;;;4989001;28;20129;-71
2022/07/23 01:25:06;;;;;;;6.82;4.20;;;;;;;;;;4986146;28;20472;-70
2022/07/23 01:27:31;;;;;;;7.85;4.78;;;;;;;;;;4985408;28;20043;-71
2022/07/23 01:29:57;;;;;;;8.20;5.25;;;;;;;;;;4986721;28;20038;-70
2022/07/23 01:32:22;;;;;;;7.55;4.72;;;;;;;;;;4986714;28;20057;-71
2022/07/23 01:34:48;;;;;;;7.85;5.00;;;;;;;;;;4984560;28;20066;-70
2022/07/23 01:37:13;;;;;;;5.55;4.68;;;;;;;;;;4984585;28;20505;-70
2022/07/23 01:39:39;;;;;;;9.95;4.85;;;;;;;;;;4988454;28;20033;-70
2022/07/23 01:42:04;;;;;;;5.90;4.68;;;;;;;;;;4988587;28;20041;-69
2022/07/23 01:44:30;;;;;;;5.00;4.35;;;;;;;;;;4985854;28;20046;-70
2022/07/23 01:46:56;;;;;;;6.53;4.80;;;;;;;;;;4987483;28;20120;-71
2022/07/23 01:49:21;;;;;;;7.70;4.95;;;;;;;;;;4985465;28;20045;-71
2022/07/23 01:52:01;;;;;;;7.70;4.80;;;;;;;;;;4987063;28;20026;-70
2022/07/23 01:54:31;;;;;;;6.03;5.13;;;;;;;;;;4984477;28;20034;-70
2022/07/23 01:56:57;;;;;;;6.22;4.75;;;;;;;;;;4978970;28;20097;-70
2022/07/23 01:59:23;;;;;;;6.40;4.88;;;;;;;;;;4983327;28;20674;-70
2022/07/23 02:01:52;;;;;;;8.93;4.88;;;;;;;;;;4978046;28;20069;-70
2022/07/23 02:04:19;;;;;;;8.20;4.75;;;;;;;;;;4980588;28;20042;-71
2022/07/23 02:06:44;;;;;;;9.57;5.13;;;;;;;;;;4981351;28;20476;-70
2022/07/23 02:09:10;;;;;;;8.45;5.15;;;;;;;;;;4987461;28;20030;-70
2022/07/23 02:11:36;;;;;;;6.70;5.10;;;;;;;;;;4983476;28;20158;-70
2022/07/23 02:14:01;;;;;;;8.25;4.88;;;;;;;;;;4985709;28;20050;-71
2022/07/23 02:16:26;;;;;;;5.95;5.00;;;;;;;;;;4983214;28;20551;-70
2022/07/23 02:18:52;;;;;;;6.50;4.78;;;;;;;;;;4982115;28;20068;-70
2022/07/23 02:21:17;;;;;;;9.45;4.80;;;;;;;;;;4986361;28;20110;-70
2022/07/23 02:23:42;;;;;;;7.70;4.95;;;;;;;;;;4980943;28;20043;-70
2022/07/23 02:26:08;;;;;;;9.13;5.00;;;;;;;;;;4985306;28;20109;-71
2022/07/23 02:28:33;;;;;;;5.68;4.85;;;;;;;;;;4982606;28;20647;-71
2022/07/23 02:30:59;;;;;;;6.72;4.70;;;;;;;;;;4980438;28;20117;-71
2022/07/23 02:33:24;;;;;;;8.50;5.25;;;;;;;;;;4981520;28;20097;-70
2022/07/23 02:35:50;;;;;;;7.97;5.47;;;;;;;;;;4983960;28;20050;-70
2022/07/23 02:38:15;;;;;;;7.63;5.40;;;;;;;;;;4982413;28;20057;-70
2022/07/23 02:40:40;;;;;;;7.57;5.68;;;;;;;;;;4983625;28;20077;-70
2022/07/23 02:43:06;;;;;;;6.40;5.28;;;;;;;;;;4978875;28;20038;-70
2022/07/23 02:45:31;;;;;;;6.78;5.15;;;;;;;;;;4982066;28;20035;-69
2022/07/23 02:47:57;;;;;;;7.18;5.60;;;;;;;;;;4985285;28;20456;-71
2022/07/23 02:50:22;;;;;;;6.47;5.15;;;;;;;;;;4983328;28;20057;-71
2022/07/23 02:52:47;;;;;;;6.65;5.20;;;;;;;;;;4984797;28;22215;-71
2022/07/23 02:55:13;;;;;;;5.30;4.80;;;;;;;;;;4982177;28;20046;-73
2022/07/23 02:57:38;;;;;;;6.75;5.53;;;;;;;;;;4985021;28;20062;-72
2022/07/23 03:00:05;;;;;;;7.63;5.55;;;;;;;;;;4982952;28;20125;-72
2022/07/23 03:02:31;;;;;;;8.57;5.57;;;;;;;;;;4984694;28;20031;-72
2022/07/23 03:04:56;;;;;;;7.88;5.05;;;;;;;;;;4985762;28;20050;-71
2022/07/23 03:07:22;;;;;;;8.75;5.63;;;;;;;;;;4984646;28;20451;-69
2022/07/23 03:09:47;;;;;;;6.97;5.30;;;;;;;;;;4984981;28;20121;-71
2022/07/23 03:12:13;;;;;;;7.22;5.18;;;;;;;;;;4986539;28;20022;-70
2022/07/23 03:14:38;;;;;;;8.13;5.28;;;;;;;;;;4984926;28;20132;-69
2022/07/23 03:17:04;;;;;;;7.95;5.22;;;;;;;;;;4984812;28;20057;-69
2022/07/23 03:19:29;;;;;;;6.35;5.07;;;;;;;;;;4983523;28;20046;-71
2022/07/23 03:21:55;;;;;;;7.32;5.25;;;;;;;;;;4986467;28;20053;-69
2022/07/23 03:24:20;;;;;;;6.22;4.90;;;;;;;;;;4983368;28;20457;-71
2022/07/23 03:26:45;;;;;;;9.20;5.18;;;;;;;;;;4986585;28;20046;-71
2022/07/23 03:29:11;;;;;;;6.80;5.07;;;;;;;;;;4983782;28;20528;-70
2022/07/23 03:31:37;;;;;;;9.27;5.30;;;;;;;;;;4981957;28;20054;-69
2022/07/23 03:34:02;;;;;;;6.43;4.70;;;;;;;;;;4984669;28;20050;-71
2022/07/23 03:36:28;;;;;;;5.85;4.70;;;;;;;;;;4985070;28;20031;-71
2022/07/23 03:38:53;;;;;;;5.43;4.70;;;;;;;;;;4986744;28;20137;-71
2022/07/23 03:41:20;;;;;;;6.75;4.45;;;;;;;;;;4985873;28;20046;-70
2022/07/23 03:43:46;;;;;;;8.57;4.93;;;;;;;;;;4983997;28;20052;-70
2022/07/23 03:46:12;;;;;;;6.93;4.95;;;;;;;;;;4984585;28;20046;-70
2022/07/23 03:48:37;;;;;;;6.68;4.85;;;;;;;;;;4983771;28;20045;-70
2022/07/23 03:51:03;;;;;;;7.60;5.00;;;;;;;;;;4987144;28;20027;-70
2022/07/23 03:53:29;;;;;;;6.55;5.00;;;;;;;;;;4984464;28;20057;-70
2022/07/23 03:55:54;;;;;;;6.95;5.30;;;;;;;;;;4985257;28;20129;-71
2022/07/23 03:58:20;;;;;;;5.22;4.72;;;;;;;;;;4983032;28;20062;-69
2022/07/23 04:00:45;;;;;;;5.60;5.00;;;;;;;;;;4985256;28;20034;-70
2022/07/23 04:03:10;;;;;;;11.95;5.45;;;;;;;;;;4986676;28;20026;-70
2022/07/23 04:05:36;;;;;;;8.18;5.53;;;;;;;;;;4984508;28;20049;-70
2022/07/23 04:08:01;;;;;;;6.85;5.60;;;;;;;;;;4985301;28;20547;-70
2022/07/23 04:10:27;;;;;;;8.70;5.72;;;;;;;;;;4984600;28;20107;-71
2022/07/23 04:12:52;;;;;;;7.53;5.95;;;;;;;;;;4985849;28;20050;-70
2022/07/23 04:15:18;;;;;;;7.20;5.70;;;;;;;;;;4985673;28;20042;-71
2022/07/23 04:17:44;;;;;;;5.70;5.13;;;;;;;;;;4981409;28;20038;-70
2022/07/23 04:20:11;;;;;;;6.80;5.20;;;;;;;;;;4982205;28;20050;-70
2022/07/23 04:22:36;;;;;;;6.70;5.68;;;;;;;;;;4981255;28;20153;-70
2022/07/23 04:25:02;;;;;;;8.70;6.20;;;;;;;;;;4984157;28;20504;-70
2022/07/23 04:27:27;;;;;;;8.68;6.40;;;;;;;;;;4980772;28;20030;-70
2022/07/23 04:29:53;;;;;;;7.90;6.13;;;;;;;;;;4982441;28;20042;-70
2022/07/23 04:32:18;;;;;;;7.80;5.78;;;;;;;;;;4983054;28;20527;-70
2022/07/23 04:34:44;;;;;;;8.82;6.15;;;;;;;;;;4983004;28;21663;-70
2022/07/23 04:37:09;;;;;;;8.20;6.38;;;;;;;;;;4983049;28;20061;-71
2022/07/23 04:39:35;;;;;;;8.88;6.32;;;;;;;;;;4982333;28;20065;-71
2022/07/23 04:42:00;;;;;;;8.40;5.88;;;;;;;;;;4965703;28;20346;-71
2022/07/23 04:44:25;;;;;;;7.35;5.80;;;;;;;;;;4983714;28;20043;-69
2022/07/23 04:46:51;;;;;;;8.95;5.88;;;;;;;;;;4986590;28;20472;-70
2022/07/23 04:49:16;;;;;;;6.60;5.85;;;;;;;;;;4987203;28;20045;-70
2022/07/23 04:51:41;;;;;;;8.55;5.97;;;;;;;;;;4983787;28;20030;-70
2022/07/23 04:54:07;;;;;;;9.48;5.93;;;;;;;;;;4984980;28;20038;-71
2022/07/23 04:56:32;;;;;;;7.07;6.22;;;;;;;;;;4986231;28;20484;-62
2022/07/23 04:58:58;;;;;;;6.53;5.85;;;;;;;;;;4988696;28;20054;-61
2022/07/23 05:01:23;;;;;;;7.68;6.40;;;;;;;;;;4987258;28;20053;-61
2022/07/23 05:03:49;;;;;;;7.68;6.30;;;;;;;;;;4984923;28;20053;-62
2022/07/23 05:06:15;;;;;;;6.95;6.03;;;;;;;;;;4988794;28;20054;-62
2022/07/23 05:08:40;;;;;;;9.75;6.85;;;;;;;;;;4986642;28;20042;-61
2022/07/23 05:11:05;;;;;;;8.32;5.95;;;;;;;;;;4985656;28;20046;-61
2022/07/23 05:13:31;;;;;;;8.13;6.28;;;;;;;;;;4981859;28;20074;-61
2022/07/23 05:15:56;;;;;;;7.38;6.30;;;;;;;;;;4985261;28;20035;-62
2022/07/23 05:18:21;;;;;;;7.10;6.28;;;;;;;;;;4983624;28;20062;-62
2022/07/23 05:20:47;;;;;;;8.50;6.32;;;;;;;;;;4987434;28;20061;-61
2022/07/23 05:23:12;;;;;;;8.77;6.68;;;;;;;;;;4981071;28;20053;-62
2022/07/23 05:25:38;;;;;;;11.82;7.20;;;;;;;;;;4987747;28;20132;-61
2022/07/23 05:28:03;;;;;;;9.40;6.32;;;;;;;;;;4981755;28;20065;-61
2022/07/23 05:30:29;;;;;;;8.43;6.28;;;;;;;;;;4983529;28;20030;-62
2022/07/23 05:32:54;;;;;;;7.30;6.60;;;;;;;;;;4986592;28;20465;-61
2022/07/23 05:35:19;;;;;;;11.40;6.22;;;;;;;;;;4985168;28;20053;-63
2022/07/23 05:37:45;;;;;;;8.27;6.47;;;;;;;;;;4986497;28;20192;-61
2022/07/23 05:40:11;;;;;;;9.18;6.43;;;;;;;;;;4984004;28;20096;-61
2022/07/23 05:42:38;;;;;;;12.68;7.10;;;;;;;;;;4983726;28;20041;-60
2022/07/23 05:45:05;;;;;;;8.48;6.25;;;;;;;;;;4984681;28;20049;-61
2022/07/23 05:47:59;;;;;;;7.55;6.60;;;;;;;;;;4981448;28;20038;-61
2022/07/23 05:50:25;;;;;;;8.02;6.82;;;;;;;;;;4983148;28;20052;-61
2022/07/23 05:52:51;;;;;;;8.43;6.43;;;;;;;;;;4983027;28;20031;-62
2022/07/23 05:55:16;;;;;;;6.93;6.20;;;;;;;;;;4981843;28;20054;-61
2022/07/23 05:57:41;;;;;;;9.23;6.40;;;;;;;;;;4985008;28;20469;-61
2022/07/23 06:00:09;;;;;;;8.57;6.72;;;;;;;;;;4984418;28;20050;-61
2022/07/23 06:02:34;;;;;;;8.05;6.13;;;;;;;;;;4984611;28;20049;-61
2022/07/23 06:04:59;;;;;;;10.10;6.47;;;;;;;;;;4986624;28;20042;-61
2022/07/23 06:07:25;;;;;;;7.80;5.72;;;;;;;;;;4985353;28;20053;-61
2022/07/23 06:09:50;;;;;;;8.05;6.25;;;;;;;;;;4982497;28;20096;-62
2022/07/23 06:12:16;;;;;;;7.30;6.10;;;;;;;;;;4989738;28;20121;-62
2022/07/23 06:14:42;;;;;;;6.95;5.72;;;;;;;;;;4982532;28;20141;-61
2022/07/23 06:17:08;;;;;;;5.93;5.30;;;;;;;;;;4985393;28;20417;-62
2022/07/23 06:19:34;;;;;;;8.10;5.43;;;;;;;;;;4980449;28;20120;-62
2022/07/23 06:21:59;;;;;;;8.00;5.47;;;;;;;;;;4982311;28;20042;-61
2022/07/23 06:24:24;;;;;;;7.63;5.50;;;;;;;;;;4981715;28;20117;-66
2022/07/23 06:26:50;;;;;;;6.88;5.60;;;;;;;;;;4984636;28;20046;-62
2022/07/23 06:29:15;;;;;;;8.20;5.28;;;;;;;;;;4985167;28;20050;-62
2022/07/23 06:31:40;;;;;;;8.80;5.35;;;;;;;;;;4981745;28;20054;-62
2022/07/23 06:34:06;;;;;;;7.22;5.22;;;;;;;;;;4986390;28;20073;-62
2022/07/23 06:36:31;;;;;;;6.05;5.25;;;;;;;;;;4982412;28;20034;-62
2022/07/23 06:38:57;;;;;;;8.32;5.63;;;;;;;;;;4983676;28;20795;-62
2022/07/23 06:41:24;;;;;;;6.60;5.28;;;;;;;;;;4983669;28;20267;-61
2022/07/23 06:43:50;;;;;;;7.60;5.20;;;;;;;;;;4977918;28;20749;-61
2022/07/23 06:46:15;;;;;;;8.82;5.15;;;;;;;;;;4984355;28;20137;-68
2022/07/23 06:48:41;;;;;;;6.88;5.10;;;;;;;;;;4982540;28;20022;-62
2022/07/23 06:51:06;;;;;;;6.30;5.13;;;;;;;;;;4985634;28;20121;-62
2022/07/23 06:53:31;;;;;;;7.57;5.35;;;;;;;;;;4983825;28;20042;-62
2022/07/23 06:55:57;;;;;;;5.82;5.10;;;;;;;;;;4982567;28;20069;-63
2022/07/23 06:58:22;;;;;;;7.88;4.78;;;;;;;;;;4986328;28;20062;-61
2022/07/23 07:00:48;;;;;;;7.82;5.03;;;;;;;;;;4984781;28;20035;-61
2022/07/23 07:03:13;;;;;;;7.97;4.60;;;;;;;;;;4982278;28;20046;-63
2022/07/23 07:05:40;;;;;;;7.57;4.95;;;;;;;;;;4979245;28;20052;-63
2022/07/23 07:08:05;;;;;;;9.27;5.25;;;;;;;;;;4982096;28;20055;-63
2022/07/23 07:10:31;;;;;;;5.47;4.88;;;;;;;;;;4979493;28;20061;-62
2022/07/23 07:12:57;;;;;;;5.63;5.05;;;;;;;;;;4983818;28;20778;-61
2022/07/23 07:15:22;;;;;;;6.20;4.93;;;;;;;;;;4984679;28;20404;-61
2022/07/23 07:17:48;;;;;;;7.85;4.90;;;;;;;;;;4986164;28;20046;-61
2022/07/23 07:20:13;;;;;;;5.55;4.97;;;;;;;;;;4983572;28;20096;-61
2022/07/23 07:22:39;;;;;;;6.22;4.60;;;;;;;;;;4979358;28;20042;-61
2022/07/23 07:25:05;;;;;;;7.05;4.47;;;;;;;;;;4980506;28;20535;-61
2022/07/23 07:27:31;;;;;;;5.10;4.22;;;;;;;;;;4977764;28;20125;-61
2022/07/23 07:29:56;;;;;;;4.60;4.20;;;;;;;;;;4981642;28;20026;-60
2022/07/23 07:32:22;;;;;;;4.57;4.10;;;;;;;;;;4985865;28;20085;-61
2022/07/23 07:34:47;;;;;;;5.60;3.72;;;;;;;;;;4987815;28;20507;-61
2022/07/23 07:37:13;;;;;;;6.22;3.90;;;;;;;;;;4982873;28;20051;-60
2022/07/23 07:39:38;;;;;;;11.85;4.18;;;;;;;;;;4979322;28;20503;-60
2022/07/23 07:42:04;;;;;;;4.35;3.95;;;;;;;;;;4985422;28;20058;-62
2022/07/23 07:44:29;;;;;;;4.72;4.25;;;;;;;;;;4983365;28;20130;-60
2022/07/23 07:46:55;;;;;;;4.57;4.13;;;;;;;;;;4979620;28;20452;-61
2022/07/23 07:49:20;;;;;;;7.20;4.32;;;;;;;;;;4980148;28;20053;-61
2022/07/23 07:51:46;;;;;;;5.57;4.10;;;;;;;;;;4980280;28;20061;-61
2022/07/23 07:54:12;;;;;;;5.47;4.30;;;;;;;;;;4984002;28;20407;-61
2022/07/23 07:56:37;;;;;;;4.80;4.13;;;;;;;;;;4980602;28;20042;-61
2022/07/23 07:59:02;;;;;;;5.93;4.50;;;;;;;;;;4981107;28;20050;-61
2022/07/23 08:01:28;;;;;;;6.55;4.70;;;;;;;;;;4983726;28;20057;-62
2022/07/23 08:03:53;;;;;;;7.63;4.70;;;;;;;;;;4984370;28;20069;-61
2022/07/23 08:06:19;;;;;;;5.90;4.22;;;;;;;;;;4985598;28;20026;-62
2022/07/23 08:08:44;;;;;;;5.47;4.20;;;;;;;;;;4981541;28;20046;-61
2022/07/23 08:11:09;;;;;;;6.32;4.40;;;;;;;;;;4982312;28;20134;-64
2022/07/23 08:13:35;;;;;;;5.78;4.38;;;;;;;;;;4987991;28;20093;-62
2022/07/23 08:16:01;;;;;;;7.47;4.80;;;;;;;;;;4982739;28;20039;-61
2022/07/23 08:18:26;;;;;;;8.20;4.38;;;;;;;;;;4982736;28;20044;-62
2022/07/23 08:20:51;;;;;;;8.32;4.05;;;;;;;;;;4985380;28;20040;-61
2022/07/23 08:23:19;;;;;;;7.38;4.68;;;;;;;;;;4988193;28;20043;-63
2022/07/23 08:25:45;;;;;;;4.78;4.10;;;;;;;;;;4987616;28;20035;-62
2022/07/23 08:28:12;;;;;;;4.50;4.10;;;;;;;;;;4985123;28;20046;-63
2022/07/23 08:30:39;;;;;;;5.60;4.00;;;;;;;;;;4987442;28;20030;-62
2022/07/23 08:33:07;;;;;;;6.05;3.50;;;;;;;;;;4988076;28;20034;-63
2022/07/23 08:35:38;;;;;;;5.15;4.28;;;;;;;;;;4985703;28;20039;-63
2022/07/23 08:38:06;;;;;;;6.47;4.25;;;;;;;;;;4986719;28;20053;-63
2022/07/23 08:40:34;;;;;;;4.82;4.30;;;;;;;;;;4985177;28;20042;-64
2022/07/23 08:43:02;;;;;;;7.40;4.03;;;;;;;;;;4988833;28;20547;-63
2022/07/23 08:45:27;;;;;;;5.93;4.20;;;;;;;;;;4985721;28;20574;-62
2022/07/23 08:47:56;;;;;;;5.55;4.20;;;;;;;;;;4984280;28;20144;-63
2022/07/23 08:50:23;;;;;;;4.82;3.90;;;;;;;;;;4979814;28;20042;-62
2022/07/23 08:52:50;;;;;;;4.88;3.83;;;;;;;;;;4988060;28;20114;-63
2022/07/23 08:55:20;;;;;;;4.15;3.70;;;;;;;;;;4988462;28;20046;-63
2022/07/23 08:57:51;;;;;;;4.57;3.72;;;;;;;;;;4986381;28;20651;-63
2022/07/23 09:00:18;;;;;;;4.18;3.55;;;;;;;;;;4984325;28;20049;-63
2022/07/23 09:02:45;;;;;;;4.07;3.30;;;;;;;;;;4988768;28;20556;-63
2022/07/23 09:05:12;;;;;;;6.07;3.10;;;;;;;;;;4987900;28;20057;-63
2022/07/23 09:08:03;;;;;;;4.75;3.47;;;;;;;;;;4985791;28;20433;-63
2022/07/23 09:10:29;;;;;;;3.38;3.08;;;;;;;;;;4986889;28;20046;-63
2022/07/23 09:12:54;;;;;;;4.32;3.00;;;;;;;;;;4990781;28;20053;-63
2022/07/23 09:15:20;;;;;;;5.55;3.55;;;;;;;;;;4988471;28;20065;-63
2022/07/23 09:17:45;;;;;;;3.13;2.83;;;;;;;;;;4982954;28;20122;-63
2022/07/23 09:20:13;;;;;;;3.42;3.13;;;;;;;;;;4984557;28;20043;-63
2022/07/23 09:22:49;;;;;;;4.55;3.28;;;;;;;;;;4988325;28;20630;-63
2022/07/23 09:25:19;;;;;;;3.80;3.13;;;;;;;;;;4990252;28;20408;-63
2022/07/23 09:27:55;;;;;;;5.43;3.20;;;;;;;;;;4985609;28;20413;-63
2022/07/23 09:30:27;;;;;;;3.95;3.20;;;;;;;;;;4981507;28;20057;-63
2022/07/23 09:33:14;;;;;;;3.88;2.97;;;;;;;;;;4988136;28;20432;-62
2022/07/23 09:35:55;;;;;;;4.20;3.72;;;;;;;;;;4989153;28;20102;-62
2022/07/23 09:38:23;;;;;;;4.27;2.90;;;;;;;;;;4980338;28;20443;-62
2022/07/23 09:41:10;;;;;;;3.20;2.55;;;;;;;;;;4986092;28;20632;-63
2022/07/23 09:43:36;;;;;;;4.53;3.05;;;;;;;;;;4991249;28;20138;-62
2022/07/23 09:46:21;;;;;;;3.78;2.95;;;;;;;;;;4991100;28;20126;-62
2022/07/23 09:48:47;;;;;;;5.43;3.05;;;;;;;;;;4984999;28;20060;-62
2022/07/23 09:51:35;;;;;;;3.30;2.67;;;;;;;;;;4987907;28;20113;-62
2022/07/23 09:54:00;;;;;;;6.43;3.45;;;;;;;;;;4987744;28;20444;-61
2022/07/23 09:56:27;;;;;;;6.53;3.03;;;;;;;;;;4991009;28;20404;-61
2022/07/23 09:59:12;;;;;;;5.72;3.80;;;;;;;;;;4986604;28;20142;-62
2022/07/23 10:01:38;;;;;;;5.40;3.90;;;;;;;;;;4988826;28;20378;-62
2022/07/23 10:04:05;;;;;;;4.88;4.00;;;;;;;;;;4985630;28;20057;-62
2022/07/23 10:06:31;;;;;;;5.25;4.18;;;;;;;;;;4991716;28;20026;-63
2022/07/23 10:08:59;;;;;;;4.97;4.10;;;;;;;;;;4990227;28;20737;-62
2022/07/23 10:11:26;;;;;;;7.63;4.15;;;;;;;;;;4987382;28;21214;-62
2022/07/23 10:13:59;;;;;;;7.60;4.28;;;;;;;;;;4989663;28;20090;-62
2022/07/23 10:16:25;;;;;;;4.20;3.80;;;;;;;;;;4985706;28;20088;-62
2022/07/23 10:18:50;;;;;;;4.65;4.20;;;;;;;;;;4987157;28;20129;-62
2022/07/23 10:21:24;;;;;;;4.32;3.85;;;;;;;;;;4989237;28;20034;-62
2022/07/23 10:24:08;;;;;;;5.78;3.65;;;;;;;;;;4990426;28;20050;-63
2022/07/23 10:26:47;;;;;;;4.75;4.18;;;;;;;;;;4986497;28;20167;-63
2022/07/23 10:29:31;;;;;;;4.50;3.65;;;;;;;;;;4987092;28;20046;-65
2022/07/23 10:32:20;;;;;;;4.13;3.72;;;;;;;;;;4986185;28;20046;-63
2022/07/23 10:34:55;;;;;;;7.35;4.32;;;;;;;;;;4988173;28;21044;-62
2022/07/23 10:37:34;;;;;;;4.93;3.88;;;;;;;;;;4987260;28;20130;-62
2022/07/23 10:40:09;;;;;;;4.90;3.40;;;;;;;;;;4985337;28;20042;-62
2022/07/23 10:42:37;;;;;;;5.03;3.78;;;;;;;;;;4988232;28;20034;-62
2022/07/23 10:45:28;;;;;;;5.47;3.72;;;;;;;;;;4984648;28;20138;-62
2022/07/23 10:47:55;;;;;;;4.15;3.67;;;;;;;;;;4986726;28;20038;-62
2022/07/23 10:50:30;;;;;;;3.58;3.28;;;;;;;;;;4980140;28;20078;-63
2022/07/23 10:53:09;;;;;;;5.95;3.42;;;;;;;;;;4982252;28;20072;-63
2022/07/23 10:55:35;;;;;;;4.05;3.42;;;;;;;;;;4981518;28;20054;-64
2022/07/23 10:58:05;;;;;;;5.75;3.40;;;;;;;;;;4987440;28;20405;-64
2022/07/23 11:00:31;;;;;;;6.15;3.80;;;;;;;;;;4985041;28;20381;-65
2022/07/23 11:02:59;;;;;;;5.30;3.92;;;;;;;;;;4985057;28;20033;-63
2022/07/23 11:05:45;;;;;;;4.68;3.67;;;;;;;;;;4967095;28;20141;-63
2022/07/23 11:08:17;;;;;;;5.95;3.53;;;;;;;;;;4974472;28;20165;-63
2022/07/23 11:10:48;;;;;;;7.07;3.60;;;;;;;;;;4979432;28;20108;-66
2022/07/23 11:13:41;;;;;;;3.80;3.33;;;;;;;;;;4984306;28;20104;-66
2022/07/23 11:16:12;;;;;;;4.68;3.60;;;;;;;;;;4985029;28;20046;-65
2022/07/23 11:18:44;;;;;;;3.65;3.03;;;;;;;;;;4979215;28;20034;-63
2022/07/23 11:21:28;;;;;;;4.67;3.40;;;;;;;;;;4982388;28;20034;-63
2022/07/23 11:23:57;;;;;;;5.03;3.50;;;;;;;;;;4983519;28;20167;-64
2022/07/23 11:26:37;;;;;;;4.35;3.33;;;;;;;;;;4985880;28;20046;-64
2022/07/23 11:29:24;;;;;;;3.90;3.50;;;;;;;;;;4973539;28;20050;-64
2022/07/23 11:32:02;;;;;;;4.82;3.60;;;;;;;;;;4974370;28;20038;-64
2022/07/23 11:34:37;;;;;;;4.03;3.42;;;;;;;;;;4973927;28;20180;-63
2022/07/23 11:37:05;;;;;;;3.50;3.20;;;;;;;;;;4965309;28;20051;-64
2022/07/23 11:39:31;;;;;;;4.18;3.33;;;;;;;;;;4962002;28;20034;-64
2022/07/23 11:41:58;;;;;;;3.97;3.58;;;;;;;;;;4964333;28;20069;-64
2022/07/23 11:44:32;;;;;;;4.43;3.22;;;;;;;;;;4965038;28;20046;-64
2022/07/23 11:47:06;;;;;;;4.80;3.70;;;;;;;;;;4964554;28;20054;-63
2022/07/23 11:49:32;;;;;;;5.65;3.20;;;;;;;;;;4964341;28;20548;-64
2022/07/23 11:52:08;;;;;;;5.32;3.30;;;;;;;;;;4964332;28;20054;-63
2022/07/23 11:54:36;;;;;;;4.50;3.22;;;;;;;;;;4960520;28;20161;-65
2022/07/23 11:57:02;;;;;;;4.38;3.38;;;;;;;;;;4984656;28;20022;-65
2022/07/23 11:59:33;;;;;;;3.75;3.30;;;;;;;;;;4981632;28;20082;-65
2022/07/23 12:01:59;;;;;;;4.50;3.40;;;;;;;;;;4985329;28;20403;-65
2022/07/23 12:04:58;;;;;;;4.40;3.30;;;;;;;;;;4988632;28;20404;-65
2022/07/23 12:07:27;;;;;;;5.93;3.20;;;;;;;;;;4982912;28;20046;-65
2022/07/23 12:09:53;;;;;;;3.83;3.40;;;;;;;;;;4984647;28;20054;-65
2022/07/23 12:12:19;;;;;;;4.40;3.17;;;;;;;;;;4980206;28;20034;-65
2022/07/23 12:14:58;;;;;;;4.97;3.30;;;;;;;;;;4980378;28;20061;-68
2022/07/23 12:17:29;;;;;;;5.88;3.40;;;;;;;;;;4982548;28;20081;-65
2022/07/23 12:19:56;;;;;;;5.03;3.80;;;;;;;;;;4982006;28;20051;-66
2022/07/23 12:22:24;;;;;;;4.50;3.67;;;;;;;;;;4976218;28;20113;-65
2022/07/23 12:25:12;;;;;;;3.03;2.78;;;;;;;;;;4968004;28;20481;-66
2022/07/23 12:27:38;;;;;;;6.10;3.40;;;;;;;;;;4981749;28;20065;-67
2022/07/23 12:30:18;;;;;;;6.70;3.42;;;;;;;;;;4984002;28;20042;-67
2022/07/23 12:32:46;;;;;;;3.83;3.40;;;;;;;;;;4982442;28;20113;-65
2022/07/23 12:35:11;;;;;;;8.02;3.40;;;;;;;;;;4983847;28;20404;-65
2022/07/23 12:37:42;;;;;;;8.13;3.60;;;;;;;;;;4979876;28;20043;-65
2022/07/23 12:40:20;;;;;;;5.57;3.47;;;;;;;;;;4982213;28;20055;-65
2022/07/23 12:42:48;;;;;;;4.15;3.65;;;;;;;;;;4981339;28;20038;-65
2022/07/23 12:45:14;;;;;;;4.15;3.63;;;;;;;;;;4984619;28;20026;-64
2022/07/23 12:48:00;;;;;;;5.88;3.50;;;;;;;;;;4982270;28;20039;-65
2022/07/23 12:50:39;;;;;;;4.00;3.40;;;;;;;;;;4980217;28;20054;-65
2022/07/23 12:53:11;;;;;;;4.30;3.90;;;;;;;;;;4983935;28;20050;-65
2022/07/23 12:55:38;;;;;;;3.85;3.42;;;;;;;;;;4985364;28;20586;-65
2022/07/23 12:58:11;;;;;;;4.63;3.20;;;;;;;;;;4982217;28;20133;-64
2022/07/23 13:00:58;;;;;;;5.75;3.63;;;;;;;;;;4984258;28;20034;-65
2022/07/23 13:03:25;;;;;;;4.05;3.58;;;;;;;;;;4982889;28;20071;-67
2022/07/23 13:05:50;;;;;;;4.18;3.50;;;;;;;;;;4984872;28;20376;-64
2022/07/23 13:08:16;;;;;;;4.00;3.50;;;;;;;;;;4988291;28;20173;-66
2022/07/23 13:10:41;;;;;;;4.32;3.33;;;;;;;;;;4981558;28;20050;-65
2022/07/23 13:13:10;;;;;;;3.95;3.53;;;;;;;;;;4985527;28;20070;-66
2022/07/23 13:15:36;;;;;;;6.20;3.55;;;;;;;;;;4982304;28;20142;-65
2022/07/23 13:18:01;;;;;;;5.20;3.67;;;;;;;;;;4985815;28;20031;-66
2022/07/23 13:20:26;;;;;;;6.18;3.47;;;;;;;;;;4984984;28;20121;-66
2022/07/23 13:22:52;;;;;;;5.68;3.70;;;;;;;;;;4986607;28;20050;-65
2022/07/23 13:25:17;;;;;;;5.57;3.58;;;;;;;;;;4987625;28;20049;-64
2022/07/23 13:27:43;;;;;;;4.65;4.05;;;;;;;;;;4989329;28;20412;-65
2022/07/23 13:30:10;;;;;;;4.72;3.80;;;;;;;;;;4985467;28;20125;-64
2022/07/23 13:32:36;;;;;;;8.10;3.67;;;;;;;;;;4990405;28;20861;-65
2022/07/23 13:35:02;;;;;;;4.38;3.92;;;;;;;;;;4990347;28;20405;-64
2022/07/23 13:37:27;;;;;;;4.47;3.67;;;;;;;;;;4989887;28;20073;-65
2022/07/23 13:39:52;;;;;;;5.85;3.70;;;;;;;;;;4991452;28;20050;-63
2022/07/23 13:42:18;;;;;;;5.38;3.72;;;;;;;;;;4989328;28;20037;-64
2022/07/23 13:44:43;;;;;;;7.35;3.75;;;;;;;;;;4989360;28;20046;-66
2022/07/23 13:47:09;;;;;;;5.20;3.60;;;;;;;;;;4990752;28;20678;-64
2022/07/23 13:49:34;;;;;;;4.28;3.88;;;;;;;;;;4985522;28;20045;-63
2022/07/23 13:51:59;;;;;;;4.35;3.47;;;;;;;;;;4986649;28;20045;-65
2022/07/23 13:54:25;;;;;;;4.05;3.60;;;;;;;;;;4990163;28;20084;-64
2022/07/23 13:56:51;;;;;;;4.47;3.78;;;;;;;;;;4973487;28;20496;-64
2022/07/23 13:59:17;;;;;;;6.03;3.53;;;;;;;;;;4983478;28;20043;-63
2022/07/23 14:01:43;;;;;;;4.13;3.40;;;;;;;;;;4989753;28;20042;-65
2022/07/23 14:04:09;;;;;;;4.95;3.80;;;;;;;;;;4986448;28;20385;-65
2022/07/23 14:06:34;;;;;;;3.70;3.40;;;;;;;;;;4990416;28;20036;-66
2022/07/23 14:09:00;;;;;;;5.32;3.28;;;;;;;;;;4989536;28;20034;-65
2022/07/23 14:11:25;;;;;;;4.43;3.70;;;;;;;;;;4992945;28;20054;-65
2022/07/23 14:13:50;;;;;;;7.43;3.65;;;;;;;;;;4988983;28;20503;-65
2022/07/23 14:16:16;;;;;;;5.05;3.28;;;;;;;;;;4989447;28;20046;-65
2022/07/23 14:18:42;;;;;;;5.90;3.90;;;;;;;;;;4986617;28;20026;-66
2022/07/23 14:21:07;;;;;;;3.72;3.42;;;;;;;;;;4987557;28;20085;-66
2022/07/23 14:23:33;;;;;;;3.60;3.30;;;;;;;;;;4985579;28;20461;-64
2022/07/23 14:25:58;;;;;;;4.10;3.55;;;;;;;;;;4990068;28;20084;-64
2022/07/23 14:28:24;;;;;;;5.95;3.90;;;;;;;;;;4990933;28;20042;-65
2022/07/23 14:30:50;;;;;;;4.65;3.13;;;;;;;;;;4989348;28;20058;-66
2022/07/23 14:33:16;;;;;;;3.60;3.30;;;;;;;;;;4989014;28;20379;-65
2022/07/23 14:35:41;;;;;;;18.75;4.00;;;;;;;;;;4990042;28;20097;-65
2022/07/23 14:38:07;;;;;;;3.40;3.10;;;;;;;;;;4976682;28;20459;-65
2022/07/23 14:40:32;;;;;;;3.72;3.40;;;;;;;;;;4980553;28;20500;-65
2022/07/23 14:42:57;;;;;;;5.25;3.40;;;;;;;;;;4983921;28;20085;-65
2022/07/23 14:45:23;;;;;;;5.05;3.30;;;;;;;;;;4986035;28;20499;-65
2022/07/23 14:47:48;;;;;;;3.20;2.90;;;;;;;;;;4989536;28;20070;-65